sensor_id;sensor_type;location;lat;lon;timestamp;pressure;altitude;pressure_sealevel;temperature;humidity
11710;BME280;5911;51.036;6.972;2023-03-04T00:00:06;101686.19;;;5.60;100.00
11710;BME280;5911;51.036;6.972;2023-03-04T00:02:37;101694.06;;;5.60;100.00
11710;BME280;5911;51.036;6.972;2023-03-04T00:05:06;101701.91;;;5.60;100.00
11710;BME280;5911;51.036;6.972;2023-03-04T00:07:34;101698.31;;;5.63;100.00
11710;BME280;5911;51.036;6.972;2023-03-04T00:10:02;101701.78;;;5.63;100.00
11710;BME280;5911;51.036;6.972;2023-03-04T00:12:30;101703.59;;;5.61;100.00
11710;BME280;5911;51.036;6.972;2023-03-04T00:14:58;101695.69;;;5.63;100.00
11710;BME280;5911;51.036;6.972;2023-03-04T00:17:27;101697.28;;;5.65;100.00
11710;BME280;5911;51.036;6.972;2023-03-04T00:19:57;101695.69;;;5.63;100.00
11710;BME280;5911;51.036;6.972;2023-03-04T00:22:25;101685.22;;;5.63;100.00
11710;BME280;5911;51.036;6.972;2023-03-04T00:24:52;101692.28;;;5.61;100.00
11710;BME280;5911;51.036;6.972;2023-03-04T00:27:20;101691.31;;;5.63;100.00
11710;BME280;5911;51.036;6.972;2023-03-04T00:29:48;101686.06;;;5.63;100.00
11710;BME280;5911;51.036;6.972;2023-03-04T00:32:16;101694.00;;;5.62;100.00
11710;BME280;5911;51.036;6.972;2023-03-04T00:34:45;101682.53;;;5.64;100.00
11710;BME280;5911;51.036;6.972;2023-03-04T00:37:13;101687.78;;;5.64;100.00
11710;BME280;5911;51.036;6.972;2023-03-04T00:39:42;101686.06;;;5.63;100.00
11710;BME280;5911;51.036;6.972;2023-03-04T00:42:10;101674.16;;;5.56;100.00
11710;BME280;5911;51.036;6.972;2023-03-04T00:44:37;101672.06;;;5.64;100.00
11710;BME280;5911;51.036;6.972;2023-03-04T00:47:05;101675.53;;;5.65;100.00
11710;BME280;5911;51.036;6.972;2023-03-04T00:49:33;101664.00;;;5.69;100.00
11710;BME280;5911;51.036;6.972;2023-03-04T00:52:02;101673.63;;;5.69;100.00
11710;BME280;5911;51.036;6.972;2023-03-04T00:54:30;101672.81;;;5.66;100.00
11710;BME280;5911;51.036;6.972;2023-03-04T00:56:58;101665.75;;;5.69;100.00
11710;BME280;5911;51.036;6.972;2023-03-04T00:59:26;101663.28;;;5.65;100.00
11710;BME280;5911;51.036;6.972;2023-03-04T01:01:53;101658.88;;;5.66;100.00
11710;BME280;5911;51.036;6.972;2023-03-04T01:04:21;101659.00;;;5.64;100.00
11710;BME280;5911;51.036;6.972;2023-03-04T01:06:49;101668.38;;;5.69;100.00
11710;BME280;5911;51.036;6.972;2023-03-04T01:09:18;101664.97;;;5.66;100.00
11710;BME280;5911;51.036;6.972;2023-03-04T01:11:46;101664.97;;;5.66;100.00
11710;BME280;5911;51.036;6.972;2023-03-04T01:14:14;101661.59;;;5.64;100.00
11710;BME280;5911;51.036;6.972;2023-03-04T01:16:41;101664.22;;;5.64;100.00
11710;BME280;5911;51.036;6.972;2023-03-04T01:19:10;101659.84;;;5.65;100.00
11710;BME280;5911;51.036;6.972;2023-03-04T01:21:38;101656.28;;;5.66;100.00
11710;BME280;5911;51.036;6.972;2023-03-04T01:24:06;101653.81;;;5.63;100.00
11710;BME280;5911;51.036;6.972;2023-03-04T01:26:35;101654.72;;;5.62;100.00
11710;BME280;5911;51.036;6.972;2023-03-04T01:29:03;101646.88;;;5.62;100.00
11710;BME280;5911;51.036;6.972;2023-03-04T01:31:30;101645.91;;;5.64;100.00
11710;BME280;5911;51.036;6.972;2023-03-04T01:33:58;101654.66;;;5.63;100.00
11710;BME280;5911;51.036;6.972;2023-03-04T01:36:26;101646.81;;;5.63;100.00
11710;BME280;5911;51.036;6.972;2023-03-04T01:38:54;101638.97;;;5.63;100.00
11710;BME280;5911;51.036;6.972;2023-03-04T01:41:25;101637.09;;;5.65;100.00
11710;BME280;5911;51.036;6.972;2023-03-04T01:43:55;101637.25;;;5.62;100.00
11710;BME280;5911;51.036;6.972;2023-03-04T01:46:23;101634.59;;;5.64;100.00
11710;BME280;5911;51.036;6.972;2023-03-04T01:48:51;101631.88;;;5.65;100.00
11710;BME280;5911;51.036;6.972;2023-03-04T01:51:20;101628.56;;;5.62;100.00
11710;BME280;5911;51.036;6.972;2023-03-04T01:53:49;101625.09;;;5.61;100.00
11710;BME280;5911;51.036;6.972;2023-03-04T01:56:21;101623.47;;;5.59;100.00
11710;BME280;5911;51.036;6.972;2023-03-04T01:59:10;101628.75;;;5.57;100.00
11710;BME280;5911;51.036;6.972;2023-03-04T02:01:39;101611.34;;;5.56;100.00
11710;BME280;5911;51.036;6.972;2023-03-04T02:04:09;101616.31;;;5.62;100.00
11710;BME280;5911;51.036;6.972;2023-03-04T02:06:38;101611.78;;;5.66;100.00
11710;BME280;5911;51.036;6.972;2023-03-04T02:09:06;101609.94;;;5.68;100.00
11710;BME280;5911;51.036;6.972;2023-03-04T02:11:35;101617.00;;;5.66;100.00
11710;BME280;5911;51.036;6.972;2023-03-04T02:14:04;101610.94;;;5.65;100.00
11710;BME280;5911;51.036;6.972;2023-03-04T02:16:34;101611.72;;;5.68;100.00
11710;BME280;5911;51.036;6.972;2023-03-04T02:19:04;101602.25;;;5.65;100.00
11710;BME280;5911;51.036;6.972;2023-03-04T02:21:33;101608.09;;;5.70;100.00
11710;BME280;5911;51.036;6.972;2023-03-04T02:24:08;101604.72;;;5.68;100.00
11710;BME280;5911;51.036;6.972;2023-03-04T02:26:42;101597.94;;;5.64;100.00
11710;BME280;5911;51.036;6.972;2023-03-04T02:29:14;101604.78;;;5.66;100.00
11710;BME280;5911;51.036;6.972;2023-03-04T02:31:44;101603.06;;;5.65;100.00
11710;BME280;5911;51.036;6.972;2023-03-04T02:34:14;101593.69;;;5.61;100.00
11710;BME280;5911;51.036;6.972;2023-03-04T02:36:43;101602.31;;;5.63;100.00
11710;BME280;5911;51.036;6.972;2023-03-04T02:39:19;101601.31;;;5.66;100.00
11710;BME280;5911;51.036;6.972;2023-03-04T02:41:52;101603.06;;;5.65;100.00
11710;BME280;5911;51.036;6.972;2023-03-04T02:44:24;101586.69;;;5.62;100.00
11710;BME280;5911;51.036;6.972;2023-03-04T02:46:53;101598.78;;;5.64;100.00
11710;BME280;5911;51.036;6.972;2023-03-04T02:49:22;101592.59;;;5.65;100.00
11710;BME280;5911;51.036;6.972;2023-03-04T02:51:51;101578.97;;;5.59;100.00
11710;BME280;5911;51.036;6.972;2023-03-04T02:54:21;101591.69;;;5.66;100.00
11710;BME280;5911;51.036;6.972;2023-03-04T02:56:53;101590.84;;;5.66;100.00
11710;BME280;5911;51.036;6.972;2023-03-04T02:59:22;101591.78;;;5.65;100.00
11710;BME280;5911;51.036;6.972;2023-03-04T03:01:51;101584.75;;;5.65;100.00
11710;BME280;5911;51.036;6.972;2023-03-04T03:04:20;101583.84;;;5.66;100.00
11710;BME280;5911;51.036;6.972;2023-03-04T03:06:51;101581.38;;;5.63;100.00
11710;BME280;5911;51.036;6.972;2023-03-04T03:09:20;101584.06;;;5.62;100.00
11710;BME280;5911;51.036;6.972;2023-03-04T03:11:48;101582.31;;;5.62;100.00
11710;BME280;5911;51.036;6.972;2023-03-04T03:14:17;101569.28;;;5.61;100.00
11710;BME280;5911;51.036;6.972;2023-03-04T03:16:45;101579.81;;;5.59;100.00
11710;BME280;5911;51.036;6.972;2023-03-04T03:19:13;101580.53;;;5.63;100.00
11710;BME280;5911;51.036;6.972;2023-03-04T03:21:41;101574.28;;;5.65;100.00
11710;BME280;5911;51.036;6.972;2023-03-04T03:24:10;101573.38;;;5.66;100.00
11710;BME280;5911;51.036;6.972;2023-03-04T03:26:38;101566.53;;;5.64;100.00
11710;BME280;5911;51.036;6.972;2023-03-04T03:29:06;101569.22;;;5.62;100.00
11710;BME280;5911;51.036;6.972;2023-03-04T03:31:36;101559.75;;;5.60;100.00
11710;BME280;5911;51.036;6.972;2023-03-04T03:34:03;101561.44;;;5.61;100.00
11710;BME280;5911;51.036;6.972;2023-03-04T03:36:31;101552.88;;;5.57;100.00
11710;BME280;5911;51.036;6.972;2023-03-04T03:38:59;101568.31;;;5.63;100.00
11710;BME280;5911;51.036;6.972;2023-03-04T03:41:27;101555.28;;;5.62;100.00
11710;BME280;5911;51.036;6.972;2023-03-04T03:43:55;101559.59;;;5.63;100.00
11710;BME280;5911;51.036;6.972;2023-03-04T03:46:23;101560.44;;;5.63;100.00
11710;BME280;5911;51.036;6.972;2023-03-04T03:48:52;101562.16;;;5.64;100.00
11710;BME280;5911;51.036;6.972;2023-03-04T03:51:20;101555.06;;;5.66;100.00
11710;BME280;5911;51.036;6.972;2023-03-04T03:53:47;101549.81;;;5.66;100.00
11710;BME280;5911;51.036;6.972;2023-03-04T03:56:15;101558.44;;;5.69;100.00
11710;BME280;5911;51.036;6.972;2023-03-04T03:58:43;101554.91;;;5.70;100.00
11710;BME280;5911;51.036;6.972;2023-03-04T04:01:11;101554.13;;;5.68;100.00
11710;BME280;5911;51.036;6.972;2023-03-04T04:03:38;101561.13;;;5.67;100.00
11710;BME280;5911;51.036;6.972;2023-03-04T04:06:08;101541.47;;;5.58;100.00
11710;BME280;5911;51.036;6.972;2023-03-04T04:08:35;101553.22;;;5.69;100.00
11710;BME280;5911;51.036;6.972;2023-03-04T04:11:03;101560.16;;;5.70;100.00
11710;BME280;5911;51.036;6.972;2023-03-04T04:13:31;101550.59;;;5.69;100.00
11710;BME280;5911;51.036;6.972;2023-03-04T04:15:59;101560.00;;;5.73;100.00
11710;BME280;5911;51.036;6.972;2023-03-04T04:18:27;101554.00;;;5.71;100.00
11710;BME280;5911;51.036;6.972;2023-03-04T04:20:54;101552.22;;;5.71;100.00
11710;BME280;5911;51.036;6.972;2023-03-04T04:23:24;101553.09;;;5.72;100.00
11710;BME280;5911;51.036;6.972;2023-03-04T04:25:53;101554.78;;;5.73;100.00
11710;BME280;5911;51.036;6.972;2023-03-04T04:28:21;101554.84;;;5.71;100.00
11710;BME280;5911;51.036;6.972;2023-03-04T04:30:49;101552.94;;;5.75;100.00
11710;BME280;5911;51.036;6.972;2023-03-04T04:33:17;101553.09;;;5.72;100.00
11710;BME280;5911;51.036;6.972;2023-03-04T04:35:44;101553.09;;;5.72;100.00
11710;BME280;5911;51.036;6.972;2023-03-04T04:38:14;101551.44;;;5.69;100.00
11710;BME280;5911;51.036;6.972;2023-03-04T04:40:43;101554.13;;;5.68;100.00
11710;BME280;5911;51.036;6.972;2023-03-04T04:43:11;101556.53;;;5.72;100.00
11710;BME280;5911;51.036;6.972;2023-03-04T04:45:38;101556.63;;;5.71;100.00
11710;BME280;5911;51.036;6.972;2023-03-04T04:48:06;101555.69;;;5.72;100.00
11710;BME280;5911;51.036;6.972;2023-03-04T04:50:34;101556.47;;;5.74;100.00
11710;BME280;5911;51.036;6.972;2023-03-04T04:53:02;101550.47;;;5.72;100.00
11710;BME280;5911;51.036;6.972;2023-03-04T04:55:30;101547.00;;;5.71;100.00
11710;BME280;5911;51.036;6.972;2023-03-04T04:58:00;101551.38;;;5.71;100.00
11710;BME280;5911;51.036;6.972;2023-03-04T05:00:28;101556.63;;;5.71;100.00
11710;BME280;5911;51.036;6.972;2023-03-04T05:02:55;101554.78;;;5.73;100.00
11710;BME280;5911;51.036;6.972;2023-03-04T05:05:23;101554.78;;;5.73;100.00
11710;BME280;5911;51.036;6.972;2023-03-04T05:07:51;101562.56;;;5.74;100.00
11710;BME280;5911;51.036;6.972;2023-03-04T05:10:19;101557.53;;;5.70;100.00
11710;BME280;5911;51.036;6.972;2023-03-04T05:12:46;101556.75;;;5.68;100.00
11710;BME280;5911;51.036;6.972;2023-03-04T05:15:16;101555.91;;;5.67;100.00
11710;BME280;5911;51.036;6.972;2023-03-04T05:17:44;101556.91;;;5.64;100.00
11710;BME280;5911;51.036;6.972;2023-03-04T05:20:12;101553.22;;;5.69;100.00
11710;BME280;5911;51.036;6.972;2023-03-04T05:22:40;101556.63;;;5.71;100.00
11710;BME280;5911;51.036;6.972;2023-03-04T05:25:09;101552.31;;;5.70;100.00
11710;BME280;5911;51.036;6.972;2023-03-04T05:27:36;101558.31;;;5.72;100.00
11710;BME280;5911;51.036;6.972;2023-03-04T05:30:05;101554.91;;;5.70;100.00
11710;BME280;5911;51.036;6.972;2023-03-04T05:32:34;101556.63;;;5.71;100.00
11710;BME280;5911;51.036;6.972;2023-03-04T05:35:03;101547.00;;;5.71;100.00
11710;BME280;5911;51.036;6.972;2023-03-04T05:37:31;101558.31;;;5.72;100.00
11710;BME280;5911;51.036;6.972;2023-03-04T05:39:58;101560.78;;;5.75;100.00
11710;BME280;5911;51.036;6.972;2023-03-04T05:42:26;101560.94;;;5.72;100.00
11710;BME280;5911;51.036;6.972;2023-03-04T05:44:54;101560.78;;;5.75;100.00
11710;BME280;5911;51.036;6.972;2023-03-04T05:47:22;101561.56;;;5.77;100.00
11710;BME280;5911;51.036;6.972;2023-03-04T05:49:51;101561.44;;;5.80;100.00
11710;BME280;5911;51.036;6.972;2023-03-04T05:52:19;101557.25;;;5.76;100.00
11710;BME280;5911;51.036;6.972;2023-03-04T05:54:47;101564.19;;;5.77;100.00
11710;BME280;5911;51.036;6.972;2023-03-04T05:57:15;101565.13;;;5.76;100.00
11710;BME280;5911;51.036;6.972;2023-03-04T05:59:43;101565.91;;;5.78;100.00
11710;BME280;5911;51.036;6.972;2023-03-04T06:02:10;101560.66;;;5.78;100.00
11710;BME280;5911;51.036;6.972;2023-03-04T06:04:39;101562.97;;;5.84;100.00
11710;BME280;5911;51.036;6.972;2023-03-04T06:07:08;101568.22;;;5.84;100.00
11710;BME280;5911;51.036;6.972;2023-03-04T06:09:36;101569.78;;;5.88;100.00
11710;BME280;5911;51.036;6.972;2023-03-04T06:12:03;101558.53;;;5.86;100.00
11710;BME280;5911;51.036;6.972;2023-03-04T06:14:31;101568.63;;;5.95;100.00
11710;BME280;5911;51.036;6.972;2023-03-04T06:16:59;101568.44;;;5.98;100.00
11710;BME280;5911;51.036;6.972;2023-03-04T06:19:27;101578.00;;;5.99;100.00
11710;BME280;5911;51.036;6.972;2023-03-04T06:21:55;101573.53;;;6.01;100.00
11710;BME280;5911;51.036;6.972;2023-03-04T06:24:24;101574.31;;;6.03;100.00
11710;BME280;5911;51.036;6.972;2023-03-04T06:26:53;101570.13;;;5.99;100.00
11710;BME280;5911;51.036;6.972;2023-03-04T06:29:24;101571.56;;;6.06;100.00
11710;BME280;5911;51.036;6.972;2023-03-04T06:31:52;101584.66;;;6.06;100.00
11710;BME280;5911;51.036;6.972;2023-03-04T06:34:20;101580.19;;;6.08;100.00
11710;BME280;5911;51.036;6.972;2023-03-04T06:36:48;101585.44;;;6.08;100.00
11710;BME280;5911;51.036;6.972;2023-03-04T06:39:16;101592.31;;;6.11;100.00
11710;BME280;5911;51.036;6.972;2023-03-04T06:41:45;101591.47;;;6.10;100.00
11710;BME280;5911;51.036;6.972;2023-03-04T06:44:13;101596.69;;;6.10;100.00
11710;BME280;5911;51.036;6.972;2023-03-04T06:46:41;101599.31;;;6.10;100.00
11710;BME280;5911;51.036;6.972;2023-03-04T06:49:09;101602.63;;;6.14;100.00
11710;BME280;5911;51.036;6.972;2023-03-04T06:51:37;101600.06;;;6.12;100.00
11710;BME280;5911;51.036;6.972;2023-03-04T06:54:05;101594.75;;;6.14;100.00
11710;BME280;5911;51.036;6.972;2023-03-04T06:56:32;101605.03;;;6.18;100.00
11710;BME280;5911;51.036;6.972;2023-03-04T06:59:02;101602.34;;;6.20;100.00
11710;BME280;5911;51.036;6.972;2023-03-04T07:01:29;101593.75;;;6.16;100.00
11710;BME280;5911;51.036;6.972;2023-03-04T07:03:57;101607.44;;;6.23;100.00
11710;BME280;5911;51.036;6.972;2023-03-04T07:06:26;101608.34;;;6.22;100.00
11710;BME280;5911;51.036;6.972;2023-03-04T07:08:55;101615.28;;;6.23;100.00
11710;BME280;5911;51.036;6.972;2023-03-04T07:11:24;101610.91;;;6.23;100.00
11710;BME280;5911;51.036;6.972;2023-03-04T07:13:52;101605.59;;;6.25;100.00
11710;BME280;5911;51.036;6.972;2023-03-04T07:16:22;101618.59;;;6.26;100.00
11710;BME280;5911;51.036;6.972;2023-03-04T07:18:50;101615.22;;;6.24;100.00
11710;BME280;5911;51.036;6.972;2023-03-04T07:21:17;101612.59;;;6.24;100.00
11710;BME280;5911;51.036;6.972;2023-03-04T07:23:45;101615.38;;;6.21;100.00
11710;BME280;5911;51.036;6.972;2023-03-04T07:26:13;101616.06;;;6.25;100.00
11710;BME280;5911;51.036;6.972;2023-03-04T07:28:41;101621.22;;;6.26;100.00
11710;BME280;5911;51.036;6.972;2023-03-04T07:31:12;101621.22;;;6.26;100.00
11710;BME280;5911;51.036;6.972;2023-03-04T07:33:41;101629.91;;;6.27;100.00
11710;BME280;5911;51.036;6.972;2023-03-04T07:36:09;101622.78;;;6.30;100.00
11710;BME280;5911;51.036;6.972;2023-03-04T07:38:36;101625.41;;;6.30;100.00
11710;BME280;5911;51.036;6.972;2023-03-04T07:41:04;101626.25;;;6.31;100.00
11710;BME280;5911;51.036;6.972;2023-03-04T07:43:32;101632.34;;;6.31;100.00
11710;BME280;5911;51.036;6.972;2023-03-04T07:46:00;101626.09;;;6.34;100.00
11710;BME280;5911;51.036;6.972;2023-03-04T07:48:28;101633.25;;;6.30;100.00
11710;BME280;5911;51.036;6.972;2023-03-04T07:51:06;101630.50;;;6.33;100.00
11710;BME280;5911;51.036;6.972;2023-03-04T07:53:35;101631.19;;;6.37;100.00
11710;BME280;5911;51.036;6.972;2023-03-04T07:56:04;101633.03;;;6.35;100.00
11710;BME280;5911;51.036;6.972;2023-03-04T07:58:33;101627.66;;;6.38;100.00
11710;BME280;5911;51.036;6.972;2023-03-04T08:01:07;101635.59;;;6.37;100.00
11710;BME280;5911;51.036;6.972;2023-03-04T08:03:35;101627.59;;;6.40;100.00
11710;BME280;5911;51.036;6.972;2023-03-04T08:06:06;101630.22;;;6.40;100.00
11710;BME280;5911;51.036;6.972;2023-03-04T08:08:35;101634.53;;;6.41;100.00
11710;BME280;5911;51.036;6.972;2023-03-04T08:11:03;101623.94;;;6.42;100.00
11710;BME280;5911;51.036;6.972;2023-03-04T08:13:32;101638.69;;;6.45;100.00
11710;BME280;5911;51.036;6.972;2023-03-04T08:15:59;101628.34;;;6.42;100.00
11710;BME280;5911;51.036;6.972;2023-03-04T08:18:27;101635.28;;;6.43;100.00
11710;BME280;5911;51.036;6.972;2023-03-04T08:20:55;101628.19;;;6.45;100.00
11710;BME280;5911;51.036;6.972;2023-03-04T08:23:24;101633.31;;;6.48;100.00
11710;BME280;5911;51.036;6.972;2023-03-04T08:25:53;101624.81;;;6.43;100.00
11710;BME280;5911;51.036;6.972;2023-03-04T08:28:20;101640.38;;;6.46;100.00
11710;BME280;5911;51.036;6.972;2023-03-04T08:30:51;101645.47;;;6.49;100.00
11710;BME280;5911;51.036;6.972;2023-03-04T08:33:19;101637.56;;;6.50;100.00
11710;BME280;5911;51.036;6.972;2023-03-04T08:35:47;101639.31;;;6.50;100.00
11710;BME280;5911;51.036;6.972;2023-03-04T08:38:15;101643.06;;;6.44;100.00
11710;BME280;5911;51.036;6.972;2023-03-04T08:40:44;101641.94;;;6.50;100.00
11710;BME280;5911;51.036;6.972;2023-03-04T08:43:12;101648.88;;;6.51;100.00
11710;BME280;5911;51.036;6.972;2023-03-04T08:45:40;101649.53;;;6.56;100.00
11710;BME280;5911;51.036;6.972;2023-03-04T08:48:07;101653.84;;;6.57;100.00
11710;BME280;5911;51.036;6.972;2023-03-04T08:50:35;101649.41;;;6.57;100.00
11710;BME280;5911;51.036;6.972;2023-03-04T08:53:05;101651.97;;;6.59;100.00
11710;BME280;5911;51.036;6.972;2023-03-04T08:55:33;101654.53;;;6.60;100.00
11710;BME280;5911;51.036;6.972;2023-03-04T08:58:02;101652.75;;;6.61;100.00
11710;BME280;5911;51.036;6.972;2023-03-04T09:00:30;101648.44;;;6.60;100.00
11710;BME280;5911;51.036;6.972;2023-03-04T09:02:58;101646.44;;;6.65;100.00
11710;BME280;5911;51.036;6.972;2023-03-04T09:05:26;101645.53;;;6.66;100.00
11710;BME280;5911;51.036;6.972;2023-03-04T09:07:53;101641.66;;;6.73;100.00
11710;BME280;5911;51.036;6.972;2023-03-04T09:10:21;101643.00;;;6.82;100.00
11710;BME280;5911;51.036;6.972;2023-03-04T09:12:50;101649.47;;;6.92;100.00
11710;BME280;5911;51.036;6.972;2023-03-04T09:15:19;101648.47;;;6.94;100.00
11710;BME280;5911;51.036;6.972;2023-03-04T09:17:47;101642.94;;;7.00;100.00
11710;BME280;5911;51.036;6.972;2023-03-04T09:20:15;101642.88;;;7.02;100.00
11710;BME280;5911;51.036;6.972;2023-03-04T09:22:42;101647.69;;;7.10;100.00
11710;BME280;5911;51.036;6.972;2023-03-04T09:25:13;101657.19;;;7.12;100.00
11710;BME280;5911;51.036;6.972;2023-03-04T09:27:41;101651.09;;;7.12;100.00
11710;BME280;5911;51.036;6.972;2023-03-04T09:30:10;101651.25;;;7.09;100.00
11710;BME280;5911;51.036;6.972;2023-03-04T09:32:39;101657.34;;;7.09;100.00
11710;BME280;5911;51.036;6.972;2023-03-04T09:35:07;101650.47;;;7.06;100.00
11710;BME280;5911;51.036;6.972;2023-03-04T09:37:35;101645.22;;;7.06;100.00
11710;BME280;5911;51.036;6.972;2023-03-04T09:40:10;101652.25;;;7.06;100.00
11710;BME280;5911;51.036;6.972;2023-03-04T09:42:47;101643.53;;;7.05;100.00
11710;BME280;5911;51.036;6.972;2023-03-04T09:45:18;101648.31;;;6.97;100.00
11710;BME280;5911;51.036;6.972;2023-03-04T09:47:50;101646.34;;;7.02;100.00
11710;BME280;5911;51.036;6.972;2023-03-04T09:50:20;101644.53;;;7.03;100.00
11710;BME280;5911;51.036;6.972;2023-03-04T09:53:03;101638.47;;;7.02;100.00
11710;BME280;5911;51.036;6.972;2023-03-04T09:55:35;101642.16;;;6.98;100.00
11710;BME280;5911;51.036;6.972;2023-03-04T09:58:13;101642.38;;;6.94;100.00
11710;BME280;5911;51.036;6.972;2023-03-04T10:00:44;101638.75;;;6.96;100.00
11710;BME280;5911;51.036;6.972;2023-03-04T10:03:17;101637.75;;;6.99;100.00
11710;BME280;5911;51.036;6.972;2023-03-04T10:05:52;101635.13;;;6.99;100.00
11710;BME280;5911;51.036;6.972;2023-03-04T10:08:31;101629.03;;;6.98;100.00
11710;BME280;5911;51.036;6.972;2023-03-04T10:11:02;101638.97;;;7.09;100.00
11710;BME280;5911;51.036;6.972;2023-03-04T10:13:34;101633.97;;;7.04;100.00
11710;BME280;5911;51.036;6.972;2023-03-04T10:16:08;101632.44;;;7.00;100.00
11710;BME280;5911;51.036;6.972;2023-03-04T10:18:43;101635.38;;;7.12;100.00
11710;BME280;5911;51.036;6.972;2023-03-04T10:21:17;101636.91;;;7.16;100.00
11710;BME280;5911;51.036;6.972;2023-03-04T10:23:47;101630.81;;;7.15;100.00
11710;BME280;5911;51.036;6.972;2023-03-04T10:26:18;101630.81;;;7.15;100.00
11710;BME280;5911;51.036;6.972;2023-03-04T10:28:46;101636.59;;;7.22;100.00
11710;BME280;5911;51.036;6.972;2023-03-04T10:31:20;101629.19;;;7.30;100.00
11710;BME280;5911;51.036;6.972;2023-03-04T10:33:57;101625.28;;;7.37;100.00
11710;BME280;5911;51.036;6.972;2023-03-04T10:36:40;101625.00;;;7.43;100.00
11710;BME280;5911;51.036;6.972;2023-03-04T10:39:16;101617.19;;;7.41;100.00
11710;BME280;5911;51.036;6.972;2023-03-04T10:41:54;101617.19;;;7.41;100.00
11710;BME280;5911;51.036;6.972;2023-03-04T10:44:22;101601.50;;;7.40;100.00
11710;BME280;5911;51.036;6.972;2023-03-04T10:46:53;101619.59;;;7.46;100.00
11710;BME280;5911;51.036;6.972;2023-03-04T10:49:25;101615.19;;;7.47;100.00
11710;BME280;5911;51.036;6.972;2023-03-04T10:51:54;101614.34;;;7.46;100.00
11710;BME280;5911;51.036;6.972;2023-03-04T10:54:30;101608.47;;;7.41;100.00
11710;BME280;5911;51.036;6.972;2023-03-04T10:56:59;101611.09;;;7.41;100.00
11710;BME280;5911;51.036;6.972;2023-03-04T10:59:46;101607.38;;;7.45;100.00
11710;BME280;5911;51.036;6.972;2023-03-04T11:02:20;101610.44;;;7.53;100.00
11710;BME280;5911;51.036;6.972;2023-03-04T11:04:52;101608.59;;;7.55;100.00
11710;BME280;5911;51.036;6.972;2023-03-04T11:07:22;101602.09;;;7.62;100.00
11710;BME280;5911;51.036;6.972;2023-03-04T11:09:50;101591.31;;;7.67;100.00
11710;BME280;5911;51.036;6.972;2023-03-04T11:12:20;101595.25;;;7.91;100.00
11710;BME280;5911;51.036;6.972;2023-03-04T11:14:50;101595.59;;;8.01;100.00
11710;BME280;5911;51.036;6.972;2023-03-04T11:17:21;101596.28;;;8.20;100.00
11710;BME280;5911;51.036;6.972;2023-03-04T11:19:56;101605.69;;;8.24;100.00
11710;BME280;5911;51.036;6.972;2023-03-04T11:22:26;101599.84;;;8.19;100.00
11710;BME280;5911;51.036;6.972;2023-03-04T11:24:58;101589.06;;;8.08;100.00
11710;BME280;5911;51.036;6.972;2023-03-04T11:27:37;101582.63;;;7.98;100.00
11710;BME280;5911;51.036;6.972;2023-03-04T11:30:20;101581.78;;;7.97;100.00
11710;BME280;5911;51.036;6.972;2023-03-04T11:32:55;101572.88;;;7.84;100.00
11710;BME280;5911;51.036;6.972;2023-03-04T11:35:32;101580.25;;;7.93;100.00
11710;BME280;5911;51.036;6.972;2023-03-04T11:38:06;101588.16;;;7.93;100.00
11710;BME280;5911;51.036;6.972;2023-03-04T11:40:39;101589.94;;;7.93;100.00
11710;BME280;5911;51.036;6.972;2023-03-04T11:43:12;101577.56;;;7.79;100.00
11710;BME280;5911;51.036;6.972;2023-03-04T11:45:59;101569.47;;;7.82;100.00
11710;BME280;5911;51.036;6.972;2023-03-04T11:48:42;101574.72;;;7.82;100.00
11710;BME280;5911;51.036;6.972;2023-03-04T11:51:17;101559.31;;;7.76;100.00
11710;BME280;5911;51.036;6.972;2023-03-04T11:53:56;101567.44;;;7.71;100.00
11710;BME280;5911;51.036;6.972;2023-03-04T11:56:33;101557.94;;;7.69;100.00
11710;BME280;5911;51.036;6.972;2023-03-04T11:59:16;101566.75;;;7.68;100.00
11710;BME280;5911;51.036;6.972;2023-03-04T12:01:54;101566.19;;;7.63;100.00
11710;BME280;5911;51.036;6.972;2023-03-04T12:04:35;101559.31;;;7.60;100.00
11710;BME280;5911;51.036;6.972;2023-03-04T12:07:27;101552.09;;;7.64;100.00
11710;BME280;5911;51.036;6.972;2023-03-04T12:10:12;101549.66;;;7.76;100.00
11710;BME280;5911;51.036;6.972;2023-03-04T12:12:56;101545.84;;;7.82;100.00
11710;BME280;5911;51.036;6.972;2023-03-04T12:15:32;101532.38;;;7.88;100.00
11710;BME280;5911;51.036;6.972;2023-03-04T12:18:32;101540.19;;;7.90;100.00
11710;BME280;5911;51.036;6.972;2023-03-04T12:21:15;101531.53;;;7.88;100.00
11710;BME280;5911;51.036;6.972;2023-03-04T12:24:12;101522.13;;;7.84;100.00
11710;BME280;5911;51.036;6.972;2023-03-04T12:26:49;101514.59;;;7.78;100.00
11710;BME280;5911;51.036;6.972;2023-03-04T12:29:23;101523.22;;;7.80;100.00
11710;BME280;5911;51.036;6.972;2023-03-04T12:32:02;101509.34;;;7.78;100.00
11710;BME280;5911;51.036;6.972;2023-03-04T12:34:49;101517.03;;;7.81;100.00
11710;BME280;5911;51.036;6.972;2023-03-04T12:37:36;101523.81;;;7.85;100.00
11710;BME280;5911;51.036;6.972;2023-03-04T12:40:22;101507.66;;;7.92;100.00
11710;BME280;5911;51.036;6.972;2023-03-04T12:43:07;101510.00;;;7.97;100.00
11710;BME280;5911;51.036;6.972;2023-03-04T12:45:43;101505.78;;;7.94;100.00
11710;BME280;5911;51.036;6.972;2023-03-04T12:48:21;101504.66;;;7.98;100.00
11710;BME280;5911;51.036;6.972;2023-03-04T12:51:02;101496.84;;;7.97;100.00
11710;BME280;5911;51.036;6.972;2023-03-04T12:53:39;101500.41;;;7.96;100.00
11710;BME280;5911;51.036;6.972;2023-03-04T12:56:21;101494.22;;;7.97;100.00
11710;BME280;5911;51.036;6.972;2023-03-04T12:58:49;101493.38;;;7.96;100.00
11710;BME280;5911;51.036;6.972;2023-03-04T13:01:23;101495.06;;;7.97;100.00
11710;BME280;5911;51.036;6.972;2023-03-04T13:03:57;101483.91;;;7.94;100.00
11710;BME280;5911;51.036;6.972;2023-03-04T13:06:35;101487.28;;;7.96;100.00
11710;BME280;5911;51.036;6.972;2023-03-04T13:09:14;101478.47;;;7.97;100.00
11710;BME280;5911;51.036;6.972;2023-03-04T13:11:51;101480.84;;;8.01;100.00
11710;BME280;5911;51.036;6.972;2023-03-04T13:14:25;101476.34;;;8.03;100.00
11710;BME280;5911;51.036;6.972;2023-03-04T13:16:54;101474.97;;;8.12;100.00